createdAt,value
2018-05-10T00:01:35.197Z,0
2018-05-10T00:02:35.760Z,0
2018-05-10T00:03:36.324Z,0
2018-05-10T00:04:36.888Z,0
2018-05-10T00:05:37.451Z,0
2018-05-10T00:06:38.012Z,0
2018-05-10T00:07:38.574Z,0
2018-05-10T00:08:39.139Z,0
2018-05-10T00:09:39.702Z,0
2018-05-10T00:10:40.265Z,0
2018-05-10T00:11:40.829Z,0
2018-05-10T00:12:41.414Z,0
2018-05-10T00:13:41.999Z,0
2018-05-10T00:14:42.581Z,0
2018-05-10T00:15:43.145Z,0
2018-05-10T00:16:43.708Z,0
2018-05-10T00:17:44.270Z,0
2018-05-10T00:18:44.853Z,0
2018-05-10T00:19:45.416Z,0
2018-05-10T00:20:45.978Z,0
2018-05-10T00:21:46.539Z,0
2018-05-10T00:22:47.081Z,0
2018-05-10T00:23:47.626Z,0
2018-05-10T00:24:48.181Z,0
2018-05-10T00:25:48.730Z,0
2018-05-10T00:26:49.280Z,0
2018-05-10T00:27:49.826Z,0
2018-05-10T00:28:50.375Z,0
2018-05-10T00:29:50.927Z,0
2018-05-10T00:30:51.484Z,0
2018-05-10T00:31:52.037Z,0
2018-05-10T00:32:52.594Z,0
2018-05-10T00:33:53.145Z,0
2018-05-10T00:34:53.696Z,0
2018-05-10T00:35:54.246Z,0
2018-05-10T00:36:54.801Z,0
2018-05-10T00:37:55.343Z,0
2018-05-10T00:38:55.896Z,0
2018-05-10T00:39:56.447Z,0
2018-05-10T00:40:56.993Z,0
2018-05-10T00:41:57.539Z,0
2018-05-10T00:42:58.093Z,0
2018-05-10T00:43:58.643Z,0
2018-05-10T00:44:59.197Z,0
2018-05-10T00:45:59.747Z,0
2018-05-10T00:47:00.300Z,0
2018-05-10T00:48:00.854Z,0
2018-05-10T00:49:01.399Z,0
2018-05-10T00:50:01.948Z,0
2018-05-10T00:51:02.492Z,0
2018-05-10T00:52:03.044Z,0
2018-05-10T00:53:03.600Z,0
2018-05-10T00:54:04.145Z,0
2018-05-10T00:55:04.701Z,0
2018-05-10T00:56:05.253Z,0
2018-05-10T00:57:05.802Z,0
2018-05-10T00:58:06.349Z,0
2018-05-10T00:59:06.898Z,0
2018-05-10T01:00:07.448Z,0
2018-05-10T01:01:07.996Z,0
2018-05-10T01:02:08.551Z,0
2018-05-10T01:03:09.099Z,0
2018-05-10T01:04:09.639Z,0
2018-05-10T01:05:10.190Z,0
2018-05-10T01:06:10.739Z,0
2018-05-10T01:07:11.289Z,0
2018-05-10T01:08:11.841Z,0
2018-05-10T01:09:12.388Z,0
2018-05-10T01:10:12.944Z,0
2018-05-10T01:11:13.488Z,0
2018-05-10T01:12:14.042Z,0
2018-05-10T01:13:14.596Z,0
2018-05-10T01:14:15.143Z,0
2018-05-10T01:15:15.692Z,0
2018-05-10T01:16:16.237Z,0
2018-05-10T01:17:16.785Z,0
2018-05-10T01:18:17.333Z,0
2018-05-10T01:19:17.880Z,0
2018-05-10T01:20:18.434Z,0
2018-05-10T01:21:18.977Z,0
2018-05-10T01:22:19.528Z,0
2018-05-10T01:23:20.070Z,0
2018-05-10T01:24:20.626Z,0
2018-05-10T01:25:21.170Z,0
2018-05-10T01:26:21.719Z,0
2018-05-10T01:27:22.270Z,0
2018-05-10T01:28:22.811Z,0
2018-05-10T01:29:23.361Z,0
2018-05-10T01:30:23.906Z,0
2018-05-10T01:31:24.466Z,0
2018-05-10T01:32:25.010Z,0
2018-05-10T01:33:25.632Z,0
2018-05-10T01:34:26.097Z,0
2018-05-10T01:35:26.642Z,0
2018-05-10T01:36:27.198Z,0
2018-05-10T01:37:27.756Z,0
2018-05-10T01:38:28.302Z,0
2018-05-10T01:39:28.858Z,0
2018-05-10T01:40:29.407Z,0
2018-05-10T01:41:29.951Z,0
2018-05-10T01:42:30.502Z,0
2018-05-10T01:43:31.053Z,0
2018-05-10T01:44:31.600Z,0
2018-05-10T01:45:32.152Z,0
2018-05-10T01:46:32.700Z,0
2018-05-10T01:47:33.254Z,0
2018-05-10T01:48:33.798Z,0
2018-05-10T01:49:34.351Z,0
2018-05-10T01:50:34.906Z,0
2018-05-10T01:51:35.454Z,0
2018-05-10T01:52:36.003Z,0
2018-05-10T01:53:36.569Z,0
2018-05-10T01:54:37.108Z,0
2018-05-10T01:55:37.656Z,0
2018-05-10T01:56:38.205Z,0
2018-05-10T01:57:38.752Z,0
2018-05-10T01:58:39.295Z,0
2018-05-10T01:59:39.848Z,0
2018-05-10T02:00:40.397Z,0
2018-05-10T02:01:40.943Z,0
2018-05-10T02:02:41.492Z,0
2018-05-10T02:03:42.039Z,0
2018-05-10T02:04:43.578Z,0
2018-05-10T02:05:44.135Z,0
2018-05-10T02:06:44.681Z,0
2018-05-10T02:07:45.228Z,0
2018-05-10T02:08:45.787Z,0
2018-05-10T02:09:46.335Z,0
2018-05-10T02:10:46.886Z,0
2018-05-10T02:11:47.434Z,0
2018-05-10T02:12:47.987Z,0
2018-05-10T02:13:48.539Z,0
2018-05-10T02:14:49.176Z,0
2018-05-10T02:15:49.633Z,0
2018-05-10T02:16:50.185Z,0
2018-05-10T02:17:50.735Z,0
2018-05-10T02:18:51.285Z,0
2018-05-10T02:19:51.837Z,0
2018-05-10T02:20:52.386Z,0
2018-05-10T02:21:52.933Z,0
2018-05-10T02:22:53.482Z,0
2018-05-10T02:23:54.034Z,0
2018-05-10T02:24:54.589Z,0
2018-05-10T02:25:55.141Z,0
2018-05-10T02:26:55.695Z,0
2018-05-10T02:27:56.246Z,0
2018-05-10T02:28:56.795Z,0
2018-05-10T02:29:57.343Z,0
2018-05-10T02:30:57.894Z,0
2018-05-10T02:31:58.442Z,0
2018-05-10T02:32:58.993Z,0
2018-05-10T02:33:59.545Z,0
2018-05-10T02:35:00.094Z,0
2018-05-10T02:36:00.643Z,0
2018-05-10T02:37:01.193Z,0
2018-05-10T02:38:01.738Z,0
2018-05-10T02:39:02.298Z,0
2018-05-10T02:40:02.837Z,0
2018-05-10T02:41:03.385Z,0
2018-05-10T02:42:03.932Z,0
2018-05-10T02:43:04.481Z,0
2018-05-10T02:44:05.033Z,0
2018-05-10T02:45:05.675Z,0
2018-05-10T02:46:06.119Z,0
2018-05-10T02:47:06.671Z,0
2018-05-10T02:48:07.224Z,0
2018-05-10T02:49:07.772Z,0
2018-05-10T02:50:08.321Z,0
2018-05-10T02:51:08.864Z,0
2018-05-10T02:52:09.413Z,0
2018-05-10T02:53:09.962Z,0
2018-05-10T02:54:10.511Z,0
2018-05-10T02:55:11.060Z,0
2018-05-10T02:56:11.607Z,0
2018-05-10T02:57:12.155Z,0
2018-05-10T02:58:12.706Z,0
2018-05-10T02:59:13.250Z,0
2018-05-10T03:00:13.803Z,0
2018-05-10T03:01:14.347Z,0
2018-05-10T03:02:14.898Z,0
2018-05-10T03:03:15.448Z,0
2018-05-10T03:04:16.007Z,0
2018-05-10T03:05:16.550Z,0
2018-05-10T03:06:17.104Z,0
2018-05-10T03:07:17.654Z,0
2018-05-10T03:08:18.202Z,0
2018-05-10T03:09:18.748Z,0
2018-05-10T03:10:19.299Z,0
2018-05-10T03:11:19.850Z,0
2018-05-10T03:12:20.399Z,0
2018-05-10T03:13:20.946Z,0
2018-05-10T03:14:21.497Z,4
2018-05-10T03:15:22.045Z,4
2018-05-10T03:16:22.595Z,0
2018-05-10T03:17:23.146Z,0
2018-05-10T03:18:23.694Z,4
2018-05-10T03:19:24.243Z,4
2018-05-10T03:20:24.798Z,4
2018-05-10T03:21:25.343Z,4
2018-05-10T03:22:25.886Z,4
2018-05-10T03:23:26.438Z,8
2018-05-10T03:24:26.989Z,8
2018-05-10T03:25:27.542Z,8
2018-05-10T03:26:28.087Z,8
2018-05-10T03:27:28.638Z,8
2018-05-10T03:28:29.190Z,12
2018-05-10T03:29:29.731Z,12
2018-05-10T03:30:30.287Z,16
2018-05-10T03:31:30.830Z,16
2018-05-10T03:32:31.379Z,20
2018-05-10T03:33:31.925Z,24
2018-05-10T03:34:32.482Z,24
2018-05-10T03:35:33.034Z,28
2018-05-10T03:36:33.584Z,36
2018-05-10T03:37:34.129Z,40
2018-05-10T03:38:34.686Z,52
2018-05-10T03:39:35.230Z,56
2018-05-10T03:40:35.857Z,60
2018-05-10T03:41:36.328Z,72
2018-05-10T03:42:36.874Z,76
2018-05-10T03:43:37.430Z,88
2018-05-10T03:44:37.978Z,92
2018-05-10T03:45:38.530Z,108
2018-05-10T03:46:39.081Z,116
2018-05-10T03:47:39.636Z,124
2018-05-10T03:48:40.185Z,144
2018-05-10T03:49:40.738Z,160
2018-05-10T03:50:41.291Z,172
2018-05-10T03:51:41.842Z,176
2018-05-10T03:52:42.394Z,196
2018-05-10T03:53:42.951Z,216
2018-05-10T03:54:43.503Z,236
2018-05-10T03:55:44.057Z,260
2018-05-10T03:56:44.614Z,280
2018-05-10T03:57:45.167Z,284
2018-05-10T03:58:45.721Z,304
2018-05-10T03:59:46.271Z,332
2018-05-10T04:00:46.822Z,352
2018-05-10T04:01:47.378Z,364
2018-05-10T04:02:47.928Z,384
2018-05-10T04:03:48.482Z,408
2018-05-10T04:04:49.035Z,432
2018-05-10T04:05:49.586Z,468
2018-05-10T04:06:50.132Z,528
2018-05-10T04:07:50.677Z,620
2018-05-10T04:08:51.224Z,672
2018-05-10T04:09:51.776Z,740
2018-05-10T04:10:52.322Z,860
2018-05-10T04:11:52.872Z,984
2018-05-10T04:12:53.422Z,1108
2018-05-10T04:13:53.978Z,1204
2018-05-10T04:14:54.531Z,1324
2018-05-10T04:15:55.090Z,1412
2018-05-10T04:16:55.647Z,1500
2018-05-10T04:17:56.199Z,1616
2018-05-10T04:18:56.747Z,1740
2018-05-10T04:19:57.304Z,1896
2018-05-10T04:20:57.861Z,2068
2018-05-10T04:21:58.419Z,2236
2018-05-10T04:22:58.970Z,2420
2018-05-10T04:23:59.529Z,2580
2018-05-10T04:25:00.079Z,2696
2018-05-10T04:26:00.636Z,2804
2018-05-10T04:27:01.194Z,2980
2018-05-10T04:28:01.740Z,3240
2018-05-10T04:29:02.297Z,3580
2018-05-10T04:30:02.853Z,3952
2018-05-10T04:31:03.405Z,4288
2018-05-10T04:32:03.994Z,4548
2018-05-10T04:33:04.550Z,4672
2018-05-10T04:34:05.108Z,4812
2018-05-10T04:35:05.664Z,4912
2018-05-10T04:36:06.220Z,4888
2018-05-10T04:37:06.775Z,4764
2018-05-10T04:38:07.344Z,4580
2018-05-10T04:39:07.890Z,4504
2018-05-10T04:40:08.449Z,4556
2018-05-10T04:41:09.008Z,4628
2018-05-10T04:42:09.626Z,4732
2018-05-10T04:43:10.120Z,4920
2018-05-10T04:44:10.672Z,5204
2018-05-10T04:45:11.221Z,5564
2018-05-10T04:46:11.774Z,6012
2018-05-10T04:47:12.335Z,6540
2018-05-10T04:48:12.888Z,7148
2018-05-10T04:49:13.447Z,7840
2018-05-10T04:50:13.995Z,8612
2018-05-10T04:51:14.553Z,9344
2018-05-10T04:52:15.111Z,10124
2018-05-10T04:53:15.672Z,10804
2018-05-10T04:54:16.225Z,11120
2018-05-10T04:55:16.781Z,11504
2018-05-10T04:56:18.325Z,11960
2018-05-10T04:57:18.885Z,12240
2018-05-10T04:58:19.441Z,12320
2018-05-10T04:59:19.995Z,12376
2018-05-10T05:00:20.558Z,12420
2018-05-10T05:01:21.112Z,12440
2018-05-10T05:02:21.672Z,12332
2018-05-10T05:03:22.319Z,12060
2018-05-10T05:04:22.779Z,11764
2018-05-10T05:05:23.337Z,11392
2018-05-10T05:06:23.887Z,11040
2018-05-10T05:07:24.444Z,10900
2018-05-10T05:08:25.001Z,10796
2018-05-10T05:09:25.560Z,10892
2018-05-10T05:10:26.115Z,11084
2018-05-10T05:11:26.678Z,11084
2018-05-10T05:12:27.233Z,11152
2018-05-10T05:13:27.789Z,11524
2018-05-10T05:14:28.346Z,11808
2018-05-10T05:15:28.900Z,12016
2018-05-10T05:16:29.457Z,12228
2018-05-10T05:17:30.007Z,12556
2018-05-10T05:18:30.562Z,12992
2018-05-10T05:19:31.124Z,13484
2018-05-10T05:20:31.684Z,13884
2018-05-10T05:21:32.325Z,13860
2018-05-10T05:22:32.798Z,13792
2018-05-10T05:23:33.353Z,13540
2018-05-10T05:24:33.911Z,12668
2018-05-10T05:25:34.471Z,11812
2018-05-10T05:26:35.028Z,11128
2018-05-10T05:27:35.583Z,10804
2018-05-10T05:28:36.136Z,10248
2018-05-10T05:29:36.692Z,10120
2018-05-10T05:30:37.244Z,10220
2018-05-10T05:31:37.800Z,10104
2018-05-10T05:32:38.403Z,10156
2018-05-10T05:33:38.920Z,10420
2018-05-10T05:34:39.474Z,10704
2018-05-10T05:35:40.071Z,10808
2018-05-10T05:36:40.664Z,10904
2018-05-10T05:37:41.135Z,10784
2018-05-10T05:38:41.693Z,10468
2018-05-10T05:39:42.248Z,10364
2018-05-10T05:40:42.804Z,10364
2018-05-10T05:41:43.356Z,10420
2018-05-10T05:42:43.907Z,10580
2018-05-10T05:43:44.466Z,11100
2018-05-10T05:44:45.025Z,11624
2018-05-10T05:45:45.575Z,11976
2018-05-10T05:46:46.130Z,12040
2018-05-10T05:47:46.689Z,11972
2018-05-10T05:48:47.243Z,11828
2018-05-10T05:49:47.803Z,12020
2018-05-10T05:50:48.353Z,12612
2018-05-10T05:51:48.915Z,13632
2018-05-10T05:52:49.466Z,14940
2018-05-10T05:53:50.022Z,17312
2018-05-10T05:54:50.573Z,18336
2018-05-10T05:55:51.131Z,18656
2018-05-10T05:56:51.691Z,19360
2018-05-10T05:57:52.252Z,19904
2018-05-10T05:58:52.811Z,20096
2018-05-10T05:59:53.364Z,19968
2018-05-10T06:00:53.987Z,19776
2018-05-10T06:01:54.473Z,19488
2018-05-10T06:02:55.036Z,19328
2018-05-10T06:03:55.594Z,19424
2018-05-10T06:04:56.149Z,19520
2018-05-10T06:05:56.704Z,19808
2018-05-10T06:06:57.261Z,20608
2018-05-10T06:07:57.819Z,21440
2018-05-10T06:08:58.382Z,22112
2018-05-10T06:09:58.938Z,21696
2018-05-10T06:10:59.494Z,20576
2018-05-10T06:12:00.054Z,19776
2018-05-10T06:13:00.611Z,19328
2018-05-10T06:14:01.171Z,18568
2018-05-10T06:15:01.728Z,18128
2018-05-10T06:16:02.362Z,17940
2018-05-10T06:17:02.839Z,17868
2018-05-10T06:18:03.399Z,17920
2018-05-10T06:19:03.956Z,17920
2018-05-10T06:20:04.514Z,17996
2018-05-10T06:21:05.077Z,18104
2018-05-10T06:22:05.635Z,18188
2018-05-10T06:23:06.208Z,18124
2018-05-10T06:24:06.744Z,18016
2018-05-10T06:25:07.345Z,18264
2018-05-10T06:26:07.858Z,18744
2018-05-10T06:27:08.419Z,19396
2018-05-10T06:28:08.970Z,20256
2018-05-10T06:29:09.521Z,20928
2018-05-10T06:30:10.082Z,21440
2018-05-10T06:31:10.633Z,22016
2018-05-10T06:32:11.186Z,22048
2018-05-10T06:33:11.742Z,21312
2018-05-10T06:34:12.296Z,21408
2018-05-10T06:35:12.906Z,24480
2018-05-10T06:36:13.409Z,23744
2018-05-10T06:37:13.968Z,22848
2018-05-10T06:38:14.526Z,27232
2018-05-10T06:39:15.084Z,23104
2018-05-10T06:40:15.641Z,23744
2018-05-10T06:41:16.192Z,21440
2018-05-10T06:42:16.751Z,20288
2018-05-10T06:43:17.312Z,22272
2018-05-10T06:44:17.867Z,26784
2018-05-10T06:45:18.420Z,26688
2018-05-10T06:46:18.974Z,25600
2018-05-10T06:47:19.534Z,18592
2018-05-10T06:48:20.099Z,16020
2018-05-10T06:49:20.653Z,14772
2018-05-10T06:50:21.215Z,14604
2018-05-10T06:51:21.774Z,15880
2018-05-10T06:52:22.336Z,21024
2018-05-10T06:53:22.896Z,13748
2018-05-10T06:54:23.460Z,13612
2018-05-10T06:55:24.019Z,13748
2018-05-10T06:56:24.575Z,14528
2018-05-10T06:57:25.129Z,15112
2018-05-10T06:58:25.693Z,15884
2018-05-10T06:59:26.247Z,16968
2018-05-10T07:00:26.809Z,18656
2018-05-10T07:01:27.360Z,20928
2018-05-10T07:02:27.922Z,25952
2018-05-10T07:03:28.471Z,25728
2018-05-10T07:04:29.030Z,24256
2018-05-10T07:05:29.596Z,24032
2018-05-10T07:06:30.148Z,24640
2018-05-10T07:07:30.703Z,26144
2018-05-10T07:08:31.261Z,26592
2018-05-10T07:09:31.863Z,27712
2018-05-10T07:10:32.377Z,30080
2018-05-10T07:11:32.940Z,29792
2018-05-10T07:12:33.505Z,32032
2018-05-10T07:13:34.064Z,38752
2018-05-10T07:14:34.624Z,43392
2018-05-10T07:15:35.181Z,46464
2018-05-10T07:16:35.745Z,50784
2018-05-10T07:17:36.310Z,53024
2018-05-10T07:18:36.874Z,41024
2018-05-10T07:19:37.441Z,34944
2018-05-10T07:20:37.999Z,31136
2018-05-10T07:21:38.568Z,30048
2018-05-10T07:22:39.129Z,28864
2018-05-10T07:23:39.689Z,27392
2018-05-10T07:24:40.254Z,26368
2018-05-10T07:25:40.811Z,25696
2018-05-10T07:26:41.380Z,25408
2018-05-10T07:27:41.936Z,25472
2018-05-10T07:28:42.497Z,25632
2018-05-10T07:29:43.071Z,25728
2018-05-10T07:30:43.620Z,25696
2018-05-10T07:31:44.177Z,25504
2018-05-10T07:32:44.736Z,25152
2018-05-10T07:33:45.294Z,24896
2018-05-10T07:34:45.855Z,24672
2018-05-10T07:35:46.409Z,24448
2018-05-10T07:36:46.970Z,24320
2018-05-10T07:37:47.527Z,24352
2018-05-10T07:38:48.090Z,24384
2018-05-10T07:39:48.647Z,24192
2018-05-10T07:40:49.204Z,23648
2018-05-10T07:41:49.771Z,22592
2018-05-10T07:42:50.323Z,21408
2018-05-10T07:43:50.877Z,20288
2018-05-10T07:44:51.436Z,19296
2018-05-10T07:45:52.020Z,18332
2018-05-10T07:46:52.586Z,17660
2018-05-10T07:47:53.136Z,17112
2018-05-10T07:48:53.694Z,16676
2018-05-10T07:49:54.254Z,16332
2018-05-10T07:50:54.812Z,16080
2018-05-10T07:51:55.375Z,15900
2018-05-10T07:52:55.933Z,15708
2018-05-10T07:53:56.488Z,15384
2018-05-10T07:54:57.053Z,14912
2018-05-10T07:55:57.629Z,14312
2018-05-10T07:56:58.174Z,13720
2018-05-10T07:57:58.730Z,13196
2018-05-10T07:58:59.287Z,12708
2018-05-10T07:59:59.845Z,12216
2018-05-10T08:01:00.393Z,11692
2018-05-10T08:02:00.949Z,11076
2018-05-10T08:03:01.500Z,10456
2018-05-10T08:04:02.058Z,9932
2018-05-10T08:05:02.616Z,9548
2018-05-10T08:06:03.184Z,9224
2018-05-10T08:07:03.741Z,9004
2018-05-10T08:08:04.292Z,8852
2018-05-10T08:09:04.847Z,8780
2018-05-10T08:10:05.472Z,8792
2018-05-10T08:11:05.950Z,8876
2018-05-10T08:12:06.510Z,9060
2018-05-10T08:13:07.063Z,9312
2018-05-10T08:14:07.618Z,9628
2018-05-10T08:15:08.171Z,9956
2018-05-10T08:16:08.733Z,10220
2018-05-10T08:17:09.326Z,10392
2018-05-10T08:18:09.839Z,10420
2018-05-10T08:19:10.398Z,10336
2018-05-10T08:20:10.956Z,10212
2018-05-10T08:21:11.510Z,10112
2018-05-10T08:22:12.063Z,10000
2018-05-10T08:23:12.621Z,9972
2018-05-10T08:24:13.199Z,10016
2018-05-10T08:25:13.724Z,10148
2018-05-10T08:26:14.280Z,10372
2018-05-10T08:27:14.837Z,10636
2018-05-10T08:28:15.396Z,10880
2018-05-10T08:29:15.953Z,11072
2018-05-10T08:30:16.563Z,11192
2018-05-10T08:31:17.065Z,11364
2018-05-10T08:32:17.629Z,11628
2018-05-10T08:33:18.177Z,12024
2018-05-10T08:34:18.732Z,12540
2018-05-10T08:35:19.289Z,13108
2018-05-10T08:36:19.861Z,13792
2018-05-10T08:37:20.409Z,14392
2018-05-10T08:38:20.960Z,14840
2018-05-10T08:39:21.521Z,15856
2018-05-10T08:40:22.078Z,16116
2018-05-10T08:41:22.632Z,16404
2018-05-10T08:42:23.192Z,16780
2018-05-10T08:43:23.746Z,17236
2018-05-10T08:44:24.307Z,17668
2018-05-10T08:45:24.864Z,17996
2018-05-10T08:46:25.417Z,17944
2018-05-10T08:47:25.974Z,17720
2018-05-10T08:48:26.534Z,17432
2018-05-10T08:49:27.093Z,17144
2018-05-10T08:50:27.647Z,16944
2018-05-10T08:51:28.212Z,16800
2018-05-10T08:52:28.763Z,16344
2018-05-10T08:53:29.319Z,16380
2018-05-10T08:54:29.873Z,16564
2018-05-10T08:55:30.431Z,16712
2018-05-10T08:56:30.989Z,16848
2018-05-10T08:57:31.552Z,16900
2018-05-10T08:58:32.111Z,16872
2018-05-10T08:59:32.663Z,16736
2018-05-10T09:00:33.218Z,16552
2018-05-10T09:01:33.772Z,16476
2018-05-10T09:02:34.328Z,16400
2018-05-10T09:03:34.883Z,16332
2018-05-10T09:04:35.441Z,16200
2018-05-10T09:05:36.000Z,15940
2018-05-10T09:06:36.556Z,15624
2018-05-10T09:07:37.112Z,15292
2018-05-10T09:08:37.671Z,14916
2018-05-10T09:09:38.231Z,14408
2018-05-10T09:10:38.782Z,13772
2018-05-10T09:11:39.334Z,13100
2018-05-10T09:12:39.889Z,12476
2018-05-10T09:13:40.444Z,12092
2018-05-10T09:14:41.000Z,11656
2018-05-10T09:15:41.551Z,11240
2018-05-10T09:16:42.106Z,11116
2018-05-10T09:17:42.667Z,11036
2018-05-10T09:18:43.224Z,11092
2018-05-10T09:19:43.772Z,11264
2018-05-10T09:20:44.336Z,11364
2018-05-10T09:21:44.891Z,11404
2018-05-10T09:22:45.448Z,11436
2018-05-10T09:23:46.004Z,11428
2018-05-10T09:24:46.562Z,11468
2018-05-10T09:25:47.117Z,11532
2018-05-10T09:26:47.675Z,11624
2018-05-10T09:27:48.235Z,11748
2018-05-10T09:28:48.794Z,11784
2018-05-10T09:29:49.348Z,12236
2018-05-10T09:30:49.905Z,12500
2018-05-10T09:31:50.460Z,12780
2018-05-10T09:32:51.017Z,13268
2018-05-10T09:33:51.575Z,13524
2018-05-10T09:34:52.132Z,13620
2018-05-10T09:35:52.690Z,13676
2018-05-10T09:36:53.251Z,13952
2018-05-10T09:37:53.810Z,13996
2018-05-10T09:38:54.372Z,14276
2018-05-10T09:39:54.934Z,14392
2018-05-10T09:40:55.485Z,14668
2018-05-10T09:41:56.034Z,14880
2018-05-10T09:42:56.593Z,15084
2018-05-10T09:43:57.147Z,16344
2018-05-10T09:44:57.731Z,18036
2018-05-10T09:45:58.258Z,18208
2018-05-10T09:46:58.817Z,16116
2018-05-10T09:47:59.371Z,12520
2018-05-10T09:48:59.929Z,10852
2018-05-10T09:50:00.486Z,8696
2018-05-10T09:51:01.044Z,7864
2018-05-10T09:52:01.597Z,8320
2018-05-10T09:53:02.145Z,8764
2018-05-10T09:54:02.706Z,8744
2018-05-10T09:55:03.260Z,8820
2018-05-10T09:56:03.819Z,8644
2018-05-10T09:57:04.374Z,8848
2018-05-10T09:58:04.933Z,9752
2018-05-10T09:59:05.488Z,10240
2018-05-10T10:00:06.039Z,10000
2018-05-10T10:01:06.598Z,10004
2018-05-10T10:02:07.154Z,9372
2018-05-10T10:03:07.714Z,8828
2018-05-10T10:04:08.267Z,8456
2018-05-10T10:05:08.819Z,8744
2018-05-10T10:06:09.388Z,8608
2018-05-10T10:07:09.935Z,8380
2018-05-10T10:08:10.490Z,8452
2018-05-10T10:09:11.045Z,8728
2018-05-10T10:10:11.598Z,8864
2018-05-10T10:11:12.149Z,9728
2018-05-10T10:12:12.768Z,10844
2018-05-10T10:13:13.259Z,10468
2018-05-10T10:14:13.815Z,9888
2018-05-10T10:15:14.435Z,9568
2018-05-10T10:16:15.028Z,9416
2018-05-10T10:17:15.610Z,9600
2018-05-10T10:18:16.166Z,9728
2018-05-10T10:19:16.720Z,9584
2018-05-10T10:20:17.278Z,9740
2018-05-10T10:21:17.844Z,10512
2018-05-10T10:22:18.400Z,10364
2018-05-10T10:23:18.958Z,9664
2018-05-10T10:24:19.514Z,9332
2018-05-10T10:25:20.102Z,8972
2018-05-10T10:26:20.621Z,8556
2018-05-10T10:27:21.190Z,8284
2018-05-10T10:28:21.729Z,7568
2018-05-10T10:29:22.282Z,7500
2018-05-10T10:30:22.835Z,8200
2018-05-10T10:31:23.387Z,8524
2018-05-10T10:32:23.978Z,8236
2018-05-10T10:33:24.496Z,9076
2018-05-10T10:34:25.112Z,10544
2018-05-10T10:35:25.603Z,11144
2018-05-10T10:36:26.159Z,11888
2018-05-10T10:37:26.722Z,12852
2018-05-10T10:38:27.278Z,13600
2018-05-10T10:39:27.833Z,13288
2018-05-10T10:40:28.393Z,12200
2018-05-10T10:41:28.951Z,11664
2018-05-10T10:42:29.512Z,11932
2018-05-10T10:43:30.071Z,11616
2018-05-10T10:44:30.622Z,12196
2018-05-10T10:45:31.215Z,13408
2018-05-10T10:46:31.739Z,13664
2018-05-10T10:47:32.288Z,13024
2018-05-10T10:48:32.846Z,14136
2018-05-10T10:49:33.400Z,15980
2018-05-10T10:50:33.958Z,17044
2018-05-10T10:51:34.520Z,18248
2018-05-10T10:52:35.077Z,20384
2018-05-10T10:53:35.632Z,22240
2018-05-10T10:54:36.184Z,23392
2018-05-10T10:55:36.735Z,23680
2018-05-10T10:56:37.334Z,23648
2018-05-10T10:57:37.848Z,23200
2018-05-10T10:58:38.406Z,23072
2018-05-10T10:59:38.958Z,23584
2018-05-10T11:00:39.520Z,23328
2018-05-10T11:01:40.085Z,22496
2018-05-10T11:02:40.640Z,22656
2018-05-10T11:03:41.197Z,23328
2018-05-10T11:04:41.751Z,23904
2018-05-10T11:05:42.309Z,25184
2018-05-10T11:06:42.863Z,26528
2018-05-10T11:07:43.418Z,27808
2018-05-10T11:08:43.975Z,29024
2018-05-10T11:09:44.533Z,29152
2018-05-10T11:10:45.104Z,31072
2018-05-10T11:11:45.653Z,32448
2018-05-10T11:12:46.211Z,33440
2018-05-10T11:13:46.770Z,34624
2018-05-10T11:14:47.333Z,35104
2018-05-10T11:15:47.896Z,34976
2018-05-10T11:16:48.449Z,33696
2018-05-10T11:17:49.005Z,32160
2018-05-10T11:18:49.566Z,32544
2018-05-10T11:19:50.126Z,33024
2018-05-10T11:20:50.786Z,33024
2018-05-10T11:21:51.242Z,32544
2018-05-10T11:22:51.802Z,31488
2018-05-10T11:23:52.361Z,30656
2018-05-10T11:24:52.919Z,30144
2018-05-10T11:25:53.473Z,28896
2018-05-10T11:26:54.038Z,27232
2018-05-10T11:27:54.597Z,25600
2018-05-10T11:28:55.150Z,25376
2018-05-10T11:29:55.719Z,26432
2018-05-10T11:30:56.280Z,27104
2018-05-10T11:31:56.827Z,27680
2018-05-10T11:32:57.417Z,27264
2018-05-10T11:33:57.951Z,25600
2018-05-10T11:34:58.507Z,23456
2018-05-10T11:35:59.064Z,22720
2018-05-10T11:36:59.631Z,21440
2018-05-10T11:38:00.180Z,20288
2018-05-10T11:39:00.792Z,19968
2018-05-10T11:40:01.298Z,19840
2018-05-10T11:41:01.854Z,18652
2018-05-10T11:42:02.413Z,17540
2018-05-10T11:43:02.977Z,15812
2018-05-10T11:44:03.539Z,14600
2018-05-10T11:45:04.092Z,14560
2018-05-10T11:46:04.651Z,13540
2018-05-10T11:47:05.205Z,12256
2018-05-10T11:48:05.767Z,11132
2018-05-10T11:49:06.323Z,11180
2018-05-10T11:50:06.884Z,12500
2018-05-10T11:51:07.445Z,12916
2018-05-10T11:52:08.004Z,13184
2018-05-10T11:53:08.563Z,14172
2018-05-10T11:54:09.119Z,16708
2018-05-10T11:55:09.686Z,17360
2018-05-10T11:56:10.246Z,17816
2018-05-10T11:57:10.799Z,20864
2018-05-10T11:58:11.361Z,22464
2018-05-10T11:59:11.916Z,22400
2018-05-10T12:00:12.474Z,21088
2018-05-10T12:01:13.032Z,19936
2018-05-10T12:02:13.590Z,19584
2018-05-10T12:03:14.151Z,19776
2018-05-10T12:04:14.710Z,19456
2018-05-10T12:05:15.265Z,20096
2018-05-10T12:06:15.824Z,21024
2018-05-10T12:07:16.406Z,20416
2018-05-10T12:08:16.951Z,19168
2018-05-10T12:09:17.514Z,19648
2018-05-10T12:10:18.072Z,20768
2018-05-10T12:11:18.632Z,20384
2018-05-10T12:12:19.184Z,20736
2018-05-10T12:13:19.748Z,21984
2018-05-10T12:14:20.301Z,21504
2018-05-10T12:15:20.861Z,19392
2018-05-10T12:16:21.422Z,16648
2018-05-10T12:17:21.981Z,15664
2018-05-10T12:18:22.541Z,15184
2018-05-10T12:19:23.099Z,12884
2018-05-10T12:20:23.669Z,10308
2018-05-10T12:21:24.210Z,8660
2018-05-10T12:22:24.774Z,8424
2018-05-10T12:23:25.334Z,9092
2018-05-10T12:24:25.892Z,8744
2018-05-10T12:25:26.451Z,8408
2018-05-10T12:26:27.010Z,8952
2018-05-10T12:27:27.570Z,8792
2018-05-10T12:28:28.134Z,9340
2018-05-10T12:29:28.685Z,9596
2018-05-10T12:30:29.297Z,9160
2018-05-10T12:31:29.805Z,9664
2018-05-10T12:32:30.364Z,10584
2018-05-10T12:33:30.927Z,11396
2018-05-10T12:34:31.483Z,11720
2018-05-10T12:35:32.038Z,11668
2018-05-10T12:36:32.609Z,11512
2018-05-10T12:37:33.242Z,11460
2018-05-10T12:38:33.722Z,11600
2018-05-10T12:39:34.281Z,11948
2018-05-10T12:40:34.839Z,12468
2018-05-10T12:41:35.445Z,13124
2018-05-10T12:42:35.949Z,13916
2018-05-10T12:43:36.506Z,14772
2018-05-10T12:44:37.056Z,15716
2018-05-10T12:45:37.614Z,16560
2018-05-10T12:46:38.172Z,17236
2018-05-10T12:47:38.723Z,18016
2018-05-10T12:48:39.323Z,18976
2018-05-10T12:49:39.846Z,19904
2018-05-10T12:50:40.404Z,20544
2018-05-10T12:51:40.978Z,20768
2018-05-10T12:52:41.545Z,20736
2018-05-10T12:53:42.300Z,20544
2018-05-10T12:54:42.868Z,20544
2018-05-10T12:55:43.423Z,20800
2018-05-10T12:56:43.983Z,21248
2018-05-10T12:57:44.544Z,21952
2018-05-10T12:58:45.100Z,22976
2018-05-10T12:59:45.660Z,24320
2018-05-10T13:00:46.237Z,26528
2018-05-10T13:01:46.779Z,29824
2018-05-10T13:02:47.354Z,34976
2018-05-10T13:03:47.905Z,49280
2018-05-10T13:04:48.477Z,70176
2018-05-10T13:05:49.038Z,57504
2018-05-10T13:06:49.602Z,69632
2018-05-10T13:07:50.159Z,88544
2018-05-10T13:08:50.719Z,99488
2018-05-10T13:09:51.285Z,115968
2018-05-10T13:10:51.851Z,121600
2018-05-10T13:11:52.415Z,106912
2018-05-10T13:12:52.984Z,50592
2018-05-10T13:13:53.546Z,67456
2018-05-10T13:14:54.109Z,41280
2018-05-10T13:15:54.739Z,43520
2018-05-10T13:16:55.240Z,39616
2018-05-10T13:17:55.803Z,35360
2018-05-10T13:18:56.368Z,33536
2018-05-10T13:19:56.940Z,31936
2018-05-10T13:20:57.503Z,31456
2018-05-10T13:21:58.063Z,31104
2018-05-10T13:22:58.616Z,28768
2018-05-10T13:23:59.186Z,31904
2018-05-10T13:24:59.750Z,31616
2018-05-10T13:26:00.312Z,31872
2018-05-10T13:27:00.881Z,32320
2018-05-10T13:28:01.441Z,32768
2018-05-10T13:29:02.181Z,34144
2018-05-10T13:30:02.566Z,35616
2018-05-10T13:31:03.138Z,39808
2018-05-10T13:32:03.703Z,40736
2018-05-10T13:33:04.257Z,53440
2018-05-10T13:34:04.818Z,58048